Time;durP1;ratioP1;P1;durP2;ratioP2;P2;SDS_P1;SDS_P2;PMS_P1;PMS_P2;Temp;Humidity;BMP_temperature;BMP_pressure;BME280_temperature;BME280_humidity;BME280_pressure;Samples;Min_cycle;Max_cycle;Signal;HPM_P1;HPM_P2
2022/03/28 00:01:40;;;;;;;32.35;6.10;;;12.50;80.00;;;;;;5035335;28;20017;-79
2022/03/28 00:04:05;;;;;;;20.75;4.78;;;12.30;80.70;;;;;;5035571;28;20037;-79
2022/03/28 00:06:31;;;;;;;29.27;5.18;;;12.30;81.10;;;;;;5035135;28;20029;-79
2022/03/28 00:08:57;;;;;;;28.50;5.47;;;12.20;81.60;;;;;;5034995;28;20057;-81
2022/03/28 00:11:22;;;;;;;22.17;4.38;;;11.90;82.90;;;;;;5035219;28;20025;-81
2022/03/28 00:13:48;;;;;;;23.75;4.50;;;11.80;84.30;;;;;;5035444;28;20033;-82
2022/03/28 00:16:14;;;;;;;29.70;5.68;;;11.70;85.50;;;;;;5035007;28;20026;-82
2022/03/28 00:18:40;;;;;;;26.13;4.70;;;11.50;86.50;;;;;;5035251;28;20450;-82
2022/03/28 00:21:06;;;;;;;31.05;5.68;;;11.40;87.70;;;;;;5035347;28;20484;-81
2022/03/28 00:23:32;;;;;;;35.22;6.90;;;11.40;88.20;;;;;;5035139;28;20468;-82
2022/03/28 00:25:58;;;;;;;26.73;5.28;;;11.40;88.60;;;;;;5034734;28;20408;-81
2022/03/28 00:28:24;;;;;;;27.42;4.85;;;11.40;89.00;;;;;;5035065;28;20033;-81
2022/03/28 00:30:50;;;;;;;24.13;5.22;;;11.40;89.90;;;;;;5034830;28;20076;-81
2022/03/28 00:33:16;;;;;;;23.63;5.43;;;11.50;89.30;;;;;;5034859;28;20064;-81
2022/03/28 00:35:42;;;;;;;29.83;5.55;;;11.60;89.80;;;;;;5034982;28;20036;-81
2022/03/28 00:38:09;;;;;;;34.13;6.57;;;11.70;88.60;;;;;;5034794;28;20498;-81
2022/03/28 00:40:34;;;;;;;26.08;4.60;;;11.90;88.10;;;;;;5034813;28;20061;-81
2022/03/28 00:43:03;;;;;;;24.60;4.55;;;11.80;88.20;;;;;;5034637;28;20049;-81
2022/03/28 00:45:30;;;;;;;23.00;5.55;;;11.80;88.40;;;;;;5034379;28;20393;-82
2022/03/28 00:47:55;;;;;;;24.15;5.95;;;11.70;89.00;;;;;;5034553;28;20021;-82
2022/03/28 00:50:21;;;;;;;31.20;5.43;;;11.50;89.60;;;;;;5034727;28;20104;-83
2022/03/28 00:52:48;;;;;;;27.42;5.40;;;11.40;90.10;;;;;;5034371;28;20025;-84
2022/03/28 00:55:13;;;;;;;26.58;4.63;;;11.40;90.40;;;;;;5033749;28;20040;-84
2022/03/28 00:57:40;;;;;;;28.60;5.03;;;11.40;90.40;;;;;;5034667;28;20025;-84
2022/03/28 01:00:09;;;;;;;28.17;5.43;;;11.50;90.30;;;;;;5034339;28;20036;-84
2022/03/28 01:02:35;;;;;;;25.70;5.32;;;11.50;90.20;;;;;;5034478;28;20374;-84
2022/03/28 01:05:01;;;;;;;23.23;4.47;;;11.50;90.30;;;;;;5034509;28;20112;-84
2022/03/28 01:07:27;;;;;;;30.92;5.47;;;11.30;90.60;;;;;;5034118;28;20440;-84
2022/03/28 01:09:56;;;;;;;23.27;4.47;;;11.10;91.00;;;;;;5033957;28;20405;-84
2022/03/28 01:12:24;;;;;;;22.08;4.93;;;11.00;91.30;;;;;;5034025;28;20366;-84
2022/03/28 01:14:51;;;;;;;28.80;4.85;;;10.90;91.60;;;;;;5034112;28;20079;-84
2022/03/28 01:20:00;;;;;;;28.02;5.28;;;11.00;91.80;;;;;;5033933;28;20135;-83
2022/03/28 01:22:26;;;;;;;24.27;4.82;;;11.30;91.40;;;;;;5034058;28;20443;-83
2022/03/28 01:25:00;;;;;;;31.20;5.25;;;11.50;91.00;;;;;;5033602;28;20026;-83
2022/03/28 01:27:25;;;;;;;24.95;5.32;;;11.50;90.60;;;;;;5033855;28;20551;-83
2022/03/28 01:29:51;;;;;;;29.48;5.20;;;11.30;90.90;;;;;;5033985;28;20061;-82
2022/03/28 01:32:16;;;;;;;26.75;5.22;;;11.20;91.10;;;;;;5033984;28;20028;-83
2022/03/28 01:34:42;;;;;;;26.48;5.80;;;11.30;91.20;;;;;;5033675;28;20484;-82
2022/03/28 01:37:08;;;;;;;24.05;5.35;;;11.30;91.20;;;;;;5033671;28;20021;-82
2022/03/28 01:39:33;;;;;;;29.35;5.45;;;11.40;91.10;;;;;;5033497;28;20041;-83
2022/03/28 01:41:59;;;;;;;27.98;6.20;;;11.50;90.80;;;;;;5033802;28;20017;-83
2022/03/28 01:44:25;;;;;;;30.48;6.25;;;11.20;91.10;;;;;;5033738;28;20128;-83
2022/03/28 01:46:51;;;;;;;29.58;5.85;;;10.90;91.70;;;;;;5033598;28;20090;-82
2022/03/28 01:49:18;;;;;;;31.65;6.28;;;10.80;92.00;;;;;;5033426;28;20483;-82
2022/03/28 01:51:45;;;;;;;35.03;6.10;;;10.90;92.00;;;;;;5033364;28;20461;-83
2022/03/28 01:54:11;;;;;;;29.08;6.22;;;10.90;92.10;;;;;;5033574;28;20034;-82
2022/03/28 01:56:37;;;;;;;24.58;5.10;;;10.80;92.20;;;;;;5033320;28;20021;-83
2022/03/28 01:59:04;;;;;;;29.23;6.03;;;10.70;92.40;;;;;;5033277;28;20037;-82
2022/03/28 02:01:30;;;;;;;30.67;6.25;;;10.70;92.60;;;;;;5033164;28;20022;-81
2022/03/28 02:03:57;;;;;;;28.27;5.80;;;10.60;92.70;;;;;;5033595;28;20064;-81
2022/03/28 02:06:23;;;;;;;27.02;5.70;;;10.50;92.90;;;;;;5033218;28;20033;-81
2022/03/28 02:08:48;;;;;;;29.08;6.28;;;10.50;93.00;;;;;;5033042;28;20049;-82
2022/03/28 02:11:14;;;;;;;29.58;6.43;;;10.50;93.20;;;;;;5033330;28;20064;-81
2022/03/28 02:13:40;;;;;;;31.27;5.95;;;10.40;93.30;;;;;;5033443;28;20026;-81
2022/03/28 02:16:06;;;;;;;26.45;5.95;;;10.30;93.40;;;;;;5033402;28;20040;-81
2022/03/28 02:18:32;;;;;;;25.27;5.63;;;10.40;93.40;;;;;;5033423;28;20052;-81
2022/03/28 02:20:57;;;;;;;25.88;5.68;;;10.50;93.30;;;;;;5033244;28;20116;-81
2022/03/28 02:23:23;;;;;;;30.27;6.45;;;10.50;93.20;;;;;;5033034;28;20128;-81
2022/03/28 02:25:49;;;;;;;26.85;5.70;;;10.70;92.90;;;;;;5033220;28;20431;-81
2022/03/28 02:28:14;;;;;;;20.65;4.82;;;10.70;92.50;;;;;;5033377;28;20018;-81
2022/03/28 02:30:40;;;;;;;22.58;5.35;;;10.90;92.60;;;;;;5033256;28;20057;-81
2022/03/28 02:33:07;;;;;;;27.23;6.15;;;11.00;92.20;;;;;;5032910;28;20025;-80
2022/03/28 02:35:33;;;;;;;30.50;6.47;;;11.00;91.80;;;;;;5033347;28;20026;-81
2022/03/28 02:38:01;;;;;;;26.65;6.13;;;10.90;92.00;;;;;;5032988;28;20053;-81
2022/03/28 02:40:28;;;;;;;24.60;6.40;;;10.80;92.20;;;;;;5032999;28;20071;-81
2022/03/28 02:42:57;;;;;;;32.78;7.53;;;10.60;92.30;;;;;;5033096;28;20421;-80
2022/03/28 02:45:27;;;;;;;27.67;6.85;;;10.40;92.90;;;;;;5032917;28;20098;-80
2022/03/28 02:47:53;;;;;;;29.85;6.38;;;10.20;93.40;;;;;;5032970;28;20037;-80
2022/03/28 02:50:19;;;;;;;30.75;6.75;;;10.10;93.80;;;;;;5032769;28;20032;-80
2022/03/28 02:52:44;;;;;;;31.55;6.65;;;10.00;93.90;;;;;;5032633;28;20025;-80
2022/03/28 02:55:10;;;;;;;31.60;6.78;;;9.90;94.20;;;;;;5032802;28;20104;-80
2022/03/28 02:57:37;;;;;;;33.35;8.35;;;9.90;94.30;;;;;;5033016;28;20113;-81
2022/03/28 03:00:07;;;;;;;28.38;6.55;;;9.80;94.60;;;;;;5032859;28;20244;-81
2022/03/28 03:02:36;;;;;;;26.67;6.93;;;9.60;95.00;;;;;;5032909;28;20034;-81
2022/03/28 03:05:03;;;;;;;20.98;5.97;;;9.60;95.10;;;;;;5032652;28;20026;-81
2022/03/28 03:07:29;;;;;;;20.35;5.95;;;9.60;95.10;;;;;;5033003;28;20424;-81
2022/03/28 03:09:54;;;;;;;26.38;6.20;;;9.60;95.10;;;;;;5032227;28;20057;-81
2022/03/28 03:12:20;;;;;;;30.00;6.45;;;9.70;94.90;;;;;;5032689;28;20064;-81
2022/03/28 03:14:46;;;;;;;28.33;7.88;;;9.80;94.80;;;;;;5032595;28;20082;-81
2022/03/28 03:17:11;;;;;;;25.27;6.10;;;9.70;94.50;;;;;;5032694;28;20053;-81
2022/03/28 03:19:39;;;;;;;22.85;6.82;;;9.80;94.70;;;;;;5035053;28;20033;-81
2022/03/28 03:22:06;;;;;;;23.67;6.25;;;10.00;94.20;;;;;;5036540;28;20021;-85
2022/03/28 03:24:32;;;;;;;16.88;5.20;;;9.90;94.10;;;;;;5036003;28;20029;-85
2022/03/28 03:26:57;;;;;;;16.63;5.53;;;10.10;94.10;;;;;;5035917;28;20025;-85
2022/03/28 03:29:23;;;;;;;22.27;6.28;;;10.50;93.80;;;;;;5036156;28;20029;-84
2022/03/28 03:31:49;;;;;;;27.77;6.68;;;10.80;93.30;;;;;;5036004;28;20477;-84
2022/03/28 03:34:14;;;;;;;18.25;5.88;;;11.00;92.30;;;;;;5036181;28;20029;-84
2022/03/28 03:36:40;;;;;;;19.80;6.55;;;11.00;91.90;;;;;;5035857;28;20021;-85
2022/03/28 03:39:06;;;;;;;21.27;6.20;;;11.10;91.60;;;;;;5036334;28;20075;-85
2022/03/28 03:41:31;;;;;;;19.38;5.93;;;11.10;91.60;;;;;;5035763;28;20060;-85
2022/03/28 03:43:57;;;;;;;20.80;5.97;;;11.20;91.40;;;;;;5035946;28;20061;-85
2022/03/28 03:46:22;;;;;;;21.58;5.30;;;11.20;91.00;;;;;;5035750;28;20029;-84
2022/03/28 03:48:48;;;;;;;14.20;4.72;;;11.20;90.90;;;;;;5035907;28;20022;-85
2022/03/28 03:51:14;;;;;;;17.45;5.05;;;11.40;90.90;;;;;;5035937;28;20022;-85
2022/03/28 03:53:40;;;;;;;19.15;5.88;;;11.50;90.80;;;;;;5035775;28;20021;-84
2022/03/28 03:56:05;;;;;;;20.85;6.05;;;11.60;90.10;;;;;;5035402;28;20366;-84
2022/03/28 03:58:31;;;;;;;20.80;5.85;;;11.50;90.20;;;;;;5035607;28;20036;-84
2022/03/28 04:00:57;;;;;;;15.40;5.65;;;11.40;89.80;;;;;;5035725;28;20029;-84
2022/03/28 04:03:22;;;;;;;14.00;4.50;;;11.40;90.10;;;;;;5035288;28;20025;-83
2022/03/28 04:05:48;;;;;;;19.60;5.97;;;11.40;89.80;;;;;;5035966;28;20476;-83
2022/03/28 04:08:13;;;;;;;18.85;5.85;;;11.50;89.90;;;;;;5035053;28;20050;-83
2022/03/28 04:10:42;;;;;;;16.92;5.65;;;11.70;89.30;;;;;;5035769;28;20465;-83
2022/03/28 04:13:10;;;;;;;20.05;5.55;;;11.70;88.90;;;;;;5035361;28;20100;-83
2022/03/28 04:15:36;;;;;;;13.82;5.13;;;11.70;88.80;;;;;;5034965;28;20061;-84
2022/03/28 04:18:01;;;;;;;13.23;5.60;;;11.80;88.70;;;;;;5035063;28;20053;-84
2022/03/28 04:20:29;;;;;;;19.25;5.72;;;11.80;88.20;;;;;;5035370;28;20033;-83
2022/03/28 04:22:55;;;;;;;21.15;6.30;;;11.90;87.70;;;;;;5035257;28;20026;-84
2022/03/28 04:25:21;;;;;;;21.70;6.70;;;11.70;86.90;;;;;;5035095;28;20389;-83
2022/03/28 04:27:47;;;;;;;15.27;5.65;;;11.70;87.20;;;;;;5034883;28;20022;-83
2022/03/28 04:30:13;;;;;;;16.17;5.60;;;11.50;87.70;;;;;;5035025;28;20040;-84
2022/03/28 04:32:39;;;;;;;16.63;5.47;;;11.50;87.90;;;;;;5034776;28;20030;-83
2022/03/28 04:35:06;;;;;;;12.88;4.82;;;11.60;87.70;;;;;;5034840;28;20104;-82
2022/03/28 04:37:37;;;;;;;16.40;5.28;;;11.80;87.30;;;;;;5034584;28;20061;-83
2022/03/28 04:40:05;;;;;;;16.63;6.72;;;11.80;86.40;;;;;;5034946;28;20425;-82
2022/03/28 04:42:31;;;;;;;16.67;5.90;;;11.70;86.20;;;;;;5034562;28;20496;-82
2022/03/28 04:44:56;;;;;;;17.02;6.43;;;11.60;86.80;;;;;;5034533;28;20473;-82
2022/03/28 04:47:22;;;;;;;21.10;6.60;;;11.50;86.70;;;;;;5034630;28;20026;-83
2022/03/28 04:49:48;;;;;;;18.88;6.93;;;11.00;87.80;;;;;;5033991;28;20384;-82
2022/03/28 04:52:13;;;;;;;19.98;7.10;;;10.50;89.50;;;;;;5034625;28;20159;-83
2022/03/28 04:54:39;;;;;;;19.20;6.93;;;10.20;90.50;;;;;;5034603;28;20025;-82
2022/03/28 04:57:05;;;;;;;18.33;6.60;;;10.00;91.00;;;;;;5034589;28;20380;-82
2022/03/28 04:59:31;;;;;;;16.40;5.90;;;9.90;91.50;;;;;;5034113;28;20038;-83
2022/03/28 05:01:58;;;;;;;22.15;7.55;;;9.80;91.70;;;;;;5034453;28;20046;-83
2022/03/28 05:04:23;;;;;;;18.65;7.32;;;10.00;91.80;;;;;;5033910;28;20059;-82
2022/03/28 05:06:49;;;;;;;18.52;7.57;;;9.90;91.60;;;;;;5034291;28;20388;-84
2022/03/28 05:09:15;;;;;;;17.70;7.75;;;9.60;92.10;;;;;;5033884;28;20404;-81
2022/03/28 05:11:41;;;;;;;18.60;8.55;;;9.50;92.50;;;;;;5034242;28;20096;-83
2022/03/28 05:14:07;;;;;;;17.75;7.20;;;9.40;92.70;;;;;;5033861;28;20434;-85
2022/03/28 05:16:33;;;;;;;13.00;5.78;;;9.30;93.00;;;;;;5034197;28;20389;-83
2022/03/28 05:18:58;;;;;;;18.52;6.00;;;9.60;93.00;;;;;;5033621;28;20034;-83
2022/03/28 05:21:24;;;;;;;13.32;6.00;;;9.90;92.60;;;;;;5033880;28;20045;-83
2022/03/28 05:23:50;;;;;;;16.60;6.75;;;10.10;92.00;;;;;;5033633;28;20033;-84
2022/03/28 05:26:15;;;;;;;16.40;6.93;;;10.40;91.40;;;;;;5033718;28;20048;-83
2022/03/28 05:28:41;;;;;;;13.40;6.82;;;10.60;91.00;;;;;;5033399;28;20369;-83
2022/03/28 05:31:06;;;;;;;13.80;6.05;;;10.80;90.70;;;;;;5033900;28;20072;-83
2022/03/28 05:33:32;;;;;;;12.93;5.72;;;11.00;90.40;;;;;;5033697;28;20385;-83
2022/03/28 05:35:58;;;;;;;12.50;6.25;;;11.20;90.20;;;;;;5033234;28;20041;-83
2022/03/28 05:38:24;;;;;;;13.93;6.85;;;11.30;90.00;;;;;;5033699;28;20029;-87
2022/03/28 05:40:50;;;;;;;13.75;7.30;;;11.40;89.00;;;;;;5033144;28;20032;-84
2022/03/28 05:43:16;;;;;;;17.00;6.68;;;11.30;88.00;;;;;;5033256;28;20021;-84
2022/03/28 05:45:42;;;;;;;14.57;5.93;;;11.30;88.20;;;;;;5033227;28;20022;-88
2022/03/28 05:48:08;;;;;;;16.45;7.70;;;11.40;88.00;;;;;;5033703;28;20028;-87
2022/03/28 05:50:33;;;;;;;15.60;7.38;;;11.30;87.00;;;;;;5033685;28;20109;-87
2022/03/28 05:52:59;;;;;;;16.10;7.10;;;11.30;87.50;;;;;;5033582;28;20025;-87
2022/03/28 05:55:25;;;;;;;18.90;6.45;;;11.40;87.20;;;;;;5033210;28;20022;-87
2022/03/28 05:57:50;;;;;;;15.82;7.15;;;11.40;86.80;;;;;;5033185;28;20380;-87
2022/03/28 06:00:16;;;;;;;15.88;6.80;;;11.10;85.40;;;;;;5033376;28;20034;-87
2022/03/28 06:02:42;;;;;;;11.25;5.78;;;10.90;86.80;;;;;;5033695;28;20100;-88
2022/03/28 06:05:08;;;;;;;12.90;6.68;;;11.00;87.10;;;;;;5033435;28;20105;-87
2022/03/28 06:07:34;;;;;;;15.60;7.30;;;11.00;86.80;;;;;;5033557;28;20017;-86
2022/03/28 06:10:00;;;;;;;17.13;6.80;;;11.00;86.30;;;;;;5032817;28;20049;-86
2022/03/28 06:12:25;;;;;;;18.20;7.22;;;11.00;86.50;;;;;;5033627;28;20049;-87
2022/03/28 06:14:51;;;;;;;13.20;6.82;;;10.80;86.20;;;;;;5033277;28;20132;-86
2022/03/28 06:17:21;;;;;;;11.43;6.93;;;10.40;87.10;;;;;;5033614;28;20036;-87
2022/03/28 06:19:47;;;;;;;14.90;7.53;;;10.00;88.50;;;;;;5033922;28;20041;-86
2022/03/28 06:22:12;;;;;;;11.85;7.55;;;9.50;90.20;;;;;;5033216;28;20476;-85
2022/03/28 06:24:38;;;;;;;16.38;7.35;;;9.20;90.80;;;;;;5033068;28;20067;-88
2022/03/28 06:27:04;;;;;;;16.13;7.40;;;8.70;91.70;;;;;;5033224;28;20029;-86
2022/03/28 06:29:30;;;;;;;11.80;7.03;;;8.50;92.30;;;;;;5032648;28;20532;-82
2022/03/28 06:31:55;;;;;;;11.95;6.93;;;8.60;92.50;;;;;;5033149;28;20029;-82
2022/03/28 06:34:21;;;;;;;13.93;7.05;;;8.60;92.80;;;;;;5032897;28;20412;-82
2022/03/28 06:36:47;;;;;;;17.40;7.28;;;8.70;92.60;;;;;;5032753;28;20017;-83
2022/03/28 06:39:13;;;;;;;10.43;6.10;;;8.90;92.50;;;;;;5032865;28;20046;-83
2022/03/28 06:41:39;;;;;;;12.13;6.60;;;9.10;92.40;;;;;;5032936;28;20026;-83
2022/03/28 06:44:07;;;;;;;12.07;6.25;;;9.50;92.30;;;;;;5033131;28;20038;-81
2022/03/28 06:46:34;;;;;;;12.23;6.25;;;9.90;91.40;;;;;;5032849;28;20488;-82
2022/03/28 06:48:59;;;;;;;14.35;5.93;;;10.20;91.00;;;;;;5032780;28;20033;-83
2022/03/28 06:51:25;;;;;;;12.52;6.35;;;10.40;90.70;;;;;;5033195;28;20028;-80
2022/03/28 06:53:51;;;;;;;9.20;6.00;;;10.50;89.90;;;;;;5034731;28;20025;-81
2022/03/28 06:56:17;;;;;;;11.25;6.75;;;10.70;90.70;;;;;;5036139;28;20025;-83
2022/03/28 06:58:43;;;;;;;15.52;7.32;;;10.90;88.00;;;;;;5036669;28;20040;-82
2022/03/28 07:01:10;;;;;;;9.32;5.82;;;10.70;87.60;;;;;;5036518;28;20033;-82
2022/03/28 07:03:36;;;;;;;11.45;7.50;;;10.50;88.20;;;;;;5036186;28;20385;-81
2022/03/28 07:06:02;;;;;;;13.38;6.70;;;10.30;87.80;;;;;;5036232;28;20029;-83
2022/03/28 07:08:29;;;;;;;13.57;7.50;;;10.30;89.60;;;;;;5035701;28;20136;-81
2022/03/28 07:10:55;;;;;;;14.27;7.18;;;10.40;88.70;;;;;;5036487;28;20025;-81
2022/03/28 07:13:22;;;;;;;9.60;6.20;;;10.40;88.80;;;;;;5035931;28;20389;-81
2022/03/28 07:15:48;;;;;;;12.20;7.03;;;10.60;88.80;;;;;;5036484;28;20035;-81
2022/03/28 07:18:14;;;;;;;14.05;8.15;;;10.90;88.40;;;;;;5036392;28;20022;-81
2022/03/28 07:20:39;;;;;;;14.95;8.80;;;11.10;87.70;;;;;;5036553;28;20381;-83
2022/03/28 07:23:06;;;;;;;13.32;8.55;;;11.00;87.90;;;;;;5036113;28;20384;-85
2022/03/28 07:25:32;;;;;;;13.45;8.32;;;11.10;87.40;;;;;;5035913;28;20030;-84
2022/03/28 07:27:58;;;;;;;14.85;8.30;;;11.00;88.50;;;;;;5036212;28;20029;-86
2022/03/28 07:30:25;;;;;;;15.90;8.32;;;10.90;88.40;;;;;;5036390;28;20075;-85
2022/03/28 07:32:52;;;;;;;11.95;7.38;;;10.60;88.90;;;;;;5035877;28;20030;-84
2022/03/28 07:35:20;;;;;;;14.45;7.80;;;10.60;90.00;;;;;;5035929;28;20029;-82
2022/03/28 07:37:45;;;;;;;11.25;7.28;;;10.80;89.60;;;;;;5036065;28;20026;-84
2022/03/28 07:40:12;;;;;;;12.32;7.40;;;10.90;89.80;;;;;;5035653;28;20378;-82
2022/03/28 07:42:38;;;;;;;11.57;7.88;;;11.10;89.10;;;;;;5035949;28;20476;-83
2022/03/28 07:45:05;;;;;;;13.20;7.97;;;11.20;88.70;;;;;;5035736;28;20076;-84
2022/03/28 07:47:31;;;;;;;14.13;8.07;;;11.20;88.40;;;;;;5035629;28;20041;-84
2022/03/28 07:49:59;;;;;;;16.23;8.93;;;11.10;87.90;;;;;;5035701;28;20072;-84
2022/03/28 07:52:25;;;;;;;16.73;9.85;;;11.00;88.60;;;;;;5035650;28;20022;-84
2022/03/28 07:54:53;;;;;;;16.60;9.05;;;11.00;89.20;;;;;;5035865;28;20033;-84
2022/03/28 07:57:20;;;;;;;17.75;9.70;;;10.90;89.90;;;;;;5035627;28;20461;-82
2022/03/28 07:59:47;;;;;;;14.30;7.97;;;10.90;90.40;;;;;;5035448;28;20046;-83
2022/03/28 08:02:14;;;;;;;15.23;8.93;;;10.90;90.40;;;;;;5034999;28;20025;-83
2022/03/28 08:04:40;;;;;;;14.80;8.63;;;10.90;91.00;;;;;;5035137;28;20052;-84
2022/03/28 08:07:08;;;;;;;18.25;8.75;;;11.00;90.90;;;;;;5035145;28;20472;-84
2022/03/28 08:09:37;;;;;;;11.38;7.90;;;11.30;90.50;;;;;;5035036;28;20045;-85
2022/03/28 08:12:04;;;;;;;13.68;8.30;;;11.50;90.00;;;;;;5034906;28;20075;-82
2022/03/28 08:14:30;;;;;;;14.27;8.88;;;11.60;90.00;;;;;;5035327;28;20049;-83
2022/03/28 08:16:57;;;;;;;13.40;8.90;;;11.60;89.40;;;;;;5034909;28;20114;-85
2022/03/28 08:19:23;;;;;;;10.77;8.07;;;11.80;90.10;;;;;;5035097;28;20513;-84
2022/03/28 08:21:49;;;;;;;14.20;8.38;;;12.00;88.90;;;;;;5035418;28;20167;-84
2022/03/28 08:24:15;;;;;;;12.90;8.75;;;12.20;88.40;;;;;;5035911;28;20480;-85
2022/03/28 08:26:40;;;;;;;11.48;8.35;;;12.50;87.30;;;;;;5034960;28;20377;-84
2022/03/28 08:29:06;;;;;;;13.13;8.52;;;12.60;85.70;;;;;;5035060;28;20033;-83
2022/03/28 08:31:33;;;;;;;14.63;8.05;;;12.60;85.40;;;;;;5035006;28;20029;-84
2022/03/28 08:33:59;;;;;;;10.40;7.80;;;12.60;85.30;;;;;;5034914;28;20030;-81
2022/03/28 08:36:24;;;;;;;12.77;8.43;;;12.70;85.30;;;;;;5034963;28;20029;-83
2022/03/28 08:38:50;;;;;;;13.32;8.23;;;13.00;84.50;;;;;;5034603;28;20029;-81
2022/03/28 08:41:18;;;;;;;12.68;8.73;;;13.10;83.70;;;;;;5034940;28;20032;-78
2022/03/28 08:43:44;;;;;;;13.80;8.65;;;13.10;83.90;;;;;;5034558;28;20036;-79
2022/03/28 08:46:11;;;;;;;14.88;8.82;;;13.10;83.40;;;;;;5034332;28;20466;-83
2022/03/28 08:48:41;;;;;;;14.93;8.43;;;13.20;82.60;;;;;;5034559;28;20051;-83
2022/03/28 08:51:12;;;;;;;10.15;7.50;;;13.20;83.30;;;;;;5034762;28;20026;-82
2022/03/28 08:53:39;;;;;;;13.27;8.38;;;13.40;83.70;;;;;;5034292;28;20024;-87
2022/03/28 08:56:07;;;;;;;12.88;8.00;;;13.80;82.90;;;;;;5034758;28;20040;-87
2022/03/28 08:58:33;;;;;;;10.05;6.63;;;14.10;81.90;;;;;;5033530;28;20473;-83
2022/03/28 09:01:01;;;;;;;10.07;7.88;;;14.40;81.30;;;;;;5033072;28;20108;-82
2022/03/28 09:03:49;;;;;;;11.75;8.27;;;14.50;80.30;;;;;;5033805;28;20461;-82
2022/03/28 09:06:34;;;;;;;14.50;8.55;;;14.60;79.30;;;;;;5034703;28;20021;-82
2022/03/28 09:09:21;;;;;;;13.98;8.05;;;14.70;78.40;;;;;;5033502;28;20053;-82
2022/03/28 09:11:52;;;;;;;12.95;7.68;;;14.80;78.50;;;;;;5033918;28;20056;-82
2022/03/28 09:14:29;;;;;;;13.77;8.57;;;14.90;80.00;;;;;;5034119;28;20030;-82
2022/03/28 09:17:15;;;;;;;17.73;9.38;;;15.00;78.60;;;;;;5033309;28;20109;-82
2022/03/28 09:19:55;;;;;;;16.50;9.98;;;15.00;78.70;;;;;;5033616;28;20057;-82
2022/03/28 09:22:29;;;;;;;13.90;9.60;;;14.80;78.60;;;;;;5034179;28;20053;-82
2022/03/28 09:24:58;;;;;;;14.38;9.57;;;14.90;77.90;;;;;;5034055;28;20036;-82
2022/03/28 09:27:29;;;;;;;19.35;10.82;;;14.90;79.30;;;;;;5033974;28;20034;-83
2022/03/28 09:30:02;;;;;;;17.42;13.38;;;15.00;78.70;;;;;;5033616;28;20032;-82
2022/03/28 09:32:34;;;;;;;20.00;11.68;;;15.10;79.20;;;;;;5033789;28;20017;-82
2022/03/28 09:35:05;;;;;;;17.33;12.02;;;15.20;79.50;;;;;;5034104;28;20030;-82
2022/03/28 09:37:30;;;;;;;15.02;10.05;;;15.40;78.90;;;;;;5033465;28;20035;-82
2022/03/28 09:39:57;;;;;;;15.48;9.75;;;15.50;76.60;;;;;;5033651;28;20045;-82
2022/03/28 09:42:23;;;;;;;13.68;7.97;;;15.60;76.80;;;;;;5033443;28;20057;-82
2022/03/28 09:44:51;;;;;;;16.77;10.50;;;15.80;76.70;;;;;;5033592;28;20034;-82
2022/03/28 09:47:21;;;;;;;12.77;8.52;;;15.90;76.00;;;;;;5033701;28;20411;-82
2022/03/28 09:49:54;;;;;;;14.20;9.00;;;15.90;75.70;;;;;;5033779;28;20127;-82
2022/03/28 09:52:22;;;;;;;10.05;7.55;;;16.00;74.60;;;;;;5033403;28;20419;-80
2022/03/28 09:54:56;;;;;;;12.25;8.52;;;16.00;74.60;;;;;;5033535;28;20025;-82
2022/03/28 09:57:26;;;;;;;13.27;9.00;;;16.10;74.60;;;;;;5033473;28;20064;-82
2022/03/28 10:00:07;;;;;;;12.60;8.43;;;16.20;75.00;;;;;;5033266;28;20037;-81
2022/03/28 10:02:35;;;;;;;13.32;9.40;;;16.20;74.10;;;;;;5033128;28;20025;-82
2022/03/28 10:05:01;;;;;;;14.30;8.70;;;16.30;73.80;;;;;;5033315;28;20372;-81
2022/03/28 10:07:26;;;;;;;13.65;9.07;;;16.40;73.80;;;;;;5033420;28;20018;-81
2022/03/28 10:09:53;;;;;;;14.45;9.38;;;16.50;74.60;;;;;;5032929;28;20064;-81
2022/03/28 10:12:19;;;;;;;16.23;9.07;;;16.60;73.80;;;;;;5033130;28;20025;-81
2022/03/28 10:15:01;;;;;;;17.27;8.85;;;16.60;72.60;;;;;;5033081;28;20099;-82
2022/03/28 10:17:30;;;;;;;13.80;7.97;;;16.70;73.20;;;;;;5032845;28;20025;-82
2022/03/28 10:19:56;;;;;;;16.60;8.70;;;16.80;72.30;;;;;;5032738;28;20116;-81
2022/03/28 10:22:33;;;;;;;17.58;8.82;;;16.90;72.80;;;;;;5033129;28;20026;-81
2022/03/28 10:25:04;;;;;;;17.23;9.25;;;16.90;72.70;;;;;;5032801;28;20488;-82
2022/03/28 10:27:32;;;;;;;13.95;8.70;;;17.00;72.40;;;;;;5034179;28;20075;-82
2022/03/28 10:30:24;;;;;;;14.93;9.10;;;17.00;73.30;;;;;;5037430;28;20026;-82
2022/03/28 10:33:19;;;;;;;17.00;8.55;;;17.20;72.80;;;;;;5037225;28;20080;-81
2022/03/28 10:36:29;;;;;;;13.90;7.90;;;17.40;72.00;;;;;;5036868;28;20026;-81
2022/03/28 10:39:14;;;;;;;13.35;9.15;;;17.70;71.60;;;;;;5035219;28;20087;-80
2022/03/28 10:41:41;;;;;;;15.27;9.80;;;17.70;70.50;;;;;;5036900;28;20025;-84
2022/03/28 10:44:07;;;;;;;17.58;10.32;;;17.80;69.40;;;;;;5035906;28;20025;-83
2022/03/28 10:46:35;;;;;;;14.70;10.63;;;17.80;69.60;;;;;;5036620;28;20033;-84
2022/03/28 10:49:01;;;;;;;16.88;9.63;;;17.80;69.20;;;;;;5036587;28;20029;-84
2022/03/28 10:51:30;;;;;;;13.55;8.82;;;17.70;70.10;;;;;;5036900;28;20021;-80
2022/03/28 10:54:05;;;;;;;11.90;8.45;;;17.70;69.70;;;;;;5036554;28;20026;-79
2022/03/28 10:56:33;;;;;;;12.02;8.40;;;17.90;69.00;;;;;;5036727;28;20022;-82
2022/03/28 10:59:05;;;;;;;14.63;9.40;;;18.10;69.10;;;;;;5036228;28;20033;-85
2022/03/28 11:01:34;;;;;;;17.88;9.05;;;18.30;68.80;;;;;;5036416;28;20077;-86
2022/03/28 11:04:18;;;;;;;13.98;9.30;;;18.30;67.50;;;;;;5036929;28;20030;-79
2022/03/28 11:07:04;;;;;;;13.02;8.80;;;18.40;67.00;;;;;;5036715;28;20025;-79
2022/03/28 11:09:44;;;;;;;14.25;10.00;;;18.40;67.20;;;;;;5036395;28;20053;-79
2022/03/28 11:12:31;;;;;;;12.63;9.18;;;18.50;67.20;;;;;;5036321;28;20543;-78
2022/03/28 11:14:59;;;;;;;15.73;10.32;;;18.60;67.00;;;;;;5035751;28;20036;-78
2022/03/28 11:17:29;;;;;;;16.98;9.57;;;18.70;67.50;;;;;;5035365;28;20032;-78
2022/03/28 11:20:00;;;;;;;15.35;9.63;;;18.80;66.50;;;;;;5036135;28;20045;-79
2022/03/28 11:22:45;;;;;;;15.73;9.90;;;18.80;66.40;;;;;;5036153;28;20365;-79
2022/03/28 11:25:29;;;;;;;18.45;10.30;;;18.80;67.10;;;;;;5035949;28;20029;-78
2022/03/28 11:28:26;;;;;;;14.07;9.48;;;18.70;67.10;;;;;;5035109;28;20021;-78
2022/03/28 11:31:06;;;;;;;16.27;10.77;;;18.80;66.20;;;;;;5031295;28;20485;-78
2022/03/28 11:33:38;;;;;;;13.98;9.68;;;18.90;65.80;;;;;;5036236;28;20358;-77
2022/03/28 11:36:18;;;;;;;19.98;11.88;;;19.00;65.40;;;;;;5035735;28;20539;-77
2022/03/28 11:38:55;;;;;;;16.80;10.70;;;19.10;65.60;;;;;;5035148;28;20041;-78
2022/03/28 11:41:25;;;;;;;16.60;10.35;;;19.20;65.20;;;;;;5035938;28;20079;-78
2022/03/28 11:43:52;;;;;;;17.42;10.70;;;19.40;65.00;;;;;;5035782;28;20080;-78
2022/03/28 11:46:23;;;;;;;13.95;8.98;;;19.50;64.80;;;;;;5035695;28;20021;-80
2022/03/28 11:49:04;;;;;;;13.20;8.85;;;19.50;64.30;;;;;;5035592;28;20037;-78
2022/03/28 11:51:36;;;;;;;15.63;8.73;;;19.60;63.90;;;;;;5035628;28;20021;-78
2022/03/28 11:54:08;;;;;;;13.57;8.70;;;19.60;64.20;;;;;;5035698;28;20391;-78
2022/03/28 11:58:14;;;;;;;14.70;9.47;;;19.70;64.80;;;;;;5035270;28;20026;-80
2022/03/28 11:59:25;;;;;;;15.02;9.65;;;19.90;63.90;;;;;;5035109;28;20579;-79
2022/03/28 12:02:03;;;;;;;17.17;10.40;;;19.80;64.30;;;;;;5035193;28;20036;-79
2022/03/28 12:04:29;;;;;;;20.10;9.30;;;19.80;63.70;;;;;;5035004;28;20083;-80
2022/03/28 12:06:55;;;;;;;12.52;9.18;;;19.80;63.30;;;;;;5035144;28;20420;-79
2022/03/28 12:09:21;;;;;;;20.92;10.52;;;19.90;62.80;;;;;;5035000;28;20053;-78
2022/03/28 12:11:48;;;;;;;20.40;10.20;;;20.00;63.40;;;;;;5035149;28;20052;-79
2022/03/28 12:14:15;;;;;;;18.40;9.45;;;20.10;63.20;;;;;;5034778;28;20029;-80
2022/03/28 12:16:48;;;;;;;16.42;9.48;;;20.00;62.80;;;;;;5035049;28;20022;-79
2022/03/28 12:19:23;;;;;;;14.23;10.02;;;20.10;63.40;;;;;;5035159;28;20557;-81
2022/03/28 12:21:51;;;;;;;18.75;10.75;;;20.10;62.80;;;;;;5035265;28;20029;-80
2022/03/28 12:24:18;;;;;;;18.83;13.25;;;20.00;62.50;;;;;;5034981;28;20469;-80
2022/03/28 12:26:45;;;;;;;25.13;15.95;;;20.20;62.10;;;;;;5049627;28;20067;-80
2022/03/28 12:29:11;;;;;;;22.05;14.25;;;20.20;62.20;;;;;;5054487;28;20078;-80
2022/03/28 12:31:40;;;;;;;21.40;13.32;;;20.30;62.00;;;;;;5054260;28;20129;-79
2022/03/28 12:34:06;;;;;;;23.25;11.20;;;20.30;61.70;;;;;;5054395;28;20357;-76
2022/03/28 12:36:34;;;;;;;16.42;10.13;;;20.40;61.50;;;;;;5053835;28;20033;-77
2022/03/28 12:39:04;;;;;;;14.85;9.85;;;20.50;61.40;;;;;;5053092;28;20040;-78
2022/03/28 12:41:31;;;;;;;17.75;9.82;;;20.50;60.80;;;;;;5057090;28;20071;-79
2022/03/28 12:43:56;;;;;;;16.48;10.73;;;20.60;60.60;;;;;;5058284;28;20029;-83
2022/03/28 12:46:23;;;;;;;20.27;10.75;;;20.70;60.60;;;;;;5052968;28;20656;-83